createdAt,value
2023-02-03T00:01:50.132Z,8.80
2023-02-03T00:03:55.258Z,8.90
2023-02-03T00:05:57.743Z,8.90
2023-02-03T00:08:00.169Z,8.80
2023-02-03T00:10:02.878Z,8.90
2023-02-03T00:12:06.596Z,8.80
2023-02-03T00:14:09.052Z,8.80
2023-02-03T00:16:11.522Z,8.90
2023-02-03T00:18:13.854Z,9.00
2023-02-03T00:20:19.008Z,9.00
2023-02-03T00:22:21.328Z,9.00
2023-02-03T00:24:24.258Z,9.00
2023-02-03T00:26:28.713Z,9.00
2023-02-03T00:28:31.943Z,8.90
2023-02-03T00:30:35.875Z,8.90
2023-02-03T00:32:38.249Z,8.90
2023-02-03T00:34:40.603Z,8.90
2023-02-03T00:36:48.456Z,8.90
2023-02-03T00:38:51.229Z,8.90
2023-02-03T00:40:54.573Z,8.90
2023-02-03T00:42:57.108Z,8.90
2023-02-03T00:44:59.453Z,8.90
2023-02-03T00:47:01.944Z,8.90
2023-02-03T00:49:05.474Z,8.90
2023-02-03T00:51:08.633Z,9.20
2023-02-03T00:53:13.829Z,8.90
2023-02-03T00:55:16.396Z,8.90
2023-02-03T00:57:18.741Z,8.90
2023-02-03T00:59:21.169Z,8.90
2023-02-03T01:01:23.918Z,8.90
2023-02-03T01:03:26.437Z,8.90
2023-02-03T01:05:28.871Z,8.90
2023-02-03T01:07:33.115Z,8.90
2023-02-03T01:09:37.837Z,8.90
2023-02-03T01:11:40.231Z,9.30
2023-02-03T01:13:44.164Z,8.90
2023-02-03T01:15:47.560Z,8.80
2023-02-03T01:17:50.082Z,8.80
2023-02-03T01:19:53.780Z,8.80
2023-02-03T01:21:56.136Z,8.80
2023-02-03T01:23:59.765Z,8.80
2023-02-03T01:26:11.165Z,9.00
2023-02-03T01:28:13.946Z,8.80
2023-02-03T01:30:17.132Z,8.80
2023-02-03T01:32:19.534Z,8.80
2023-02-03T01:34:21.848Z,8.80
2023-02-03T01:36:26.388Z,8.90
2023-02-03T01:38:28.799Z,8.90
2023-02-03T01:40:31.143Z,8.80
2023-02-03T01:42:36.090Z,8.80
2023-02-03T01:44:45.767Z,8.90
2023-02-03T01:46:50.223Z,8.90
2023-02-03T01:48:53.685Z,8.90
2023-02-03T01:50:56.065Z,9.00
2023-02-03T01:53:04.026Z,8.20
2023-02-03T01:55:10.423Z,8.90
2023-02-03T01:57:17.261Z,8.90
2023-02-03T01:59:24.667Z,8.90
2023-02-03T02:01:28.499Z,8.90
2023-02-03T02:03:36.507Z,8.90
2023-02-03T02:05:43.453Z,8.90
2023-02-03T02:07:48.685Z,8.90
2023-02-03T02:09:51.524Z,8.90
2023-02-03T02:11:53.925Z,8.90
2023-02-03T02:14:00.595Z,8.90
2023-02-03T02:16:11.974Z,8.90
2023-02-03T02:18:38.431Z,9.10
2023-02-03T02:21:19.289Z,8.90
2023-02-03T02:23:47.561Z,8.90
2023-02-03T02:26:20.151Z,9.50
2023-02-03T02:28:53.017Z,8.90
2023-02-03T02:31:16.588Z,8.90
2023-02-03T02:33:31.982Z,8.90
2023-02-03T02:35:50.397Z,9.50
2023-02-03T02:38:01.948Z,8.90
2023-02-03T02:40:19.701Z,8.90
2023-02-03T02:42:28.657Z,8.90
2023-02-03T02:44:35.507Z,8.90
2023-02-03T02:46:43.544Z,8.90
2023-02-03T02:48:57.542Z,8.90
2023-02-03T02:51:02.506Z,8.90
2023-02-03T02:53:07.298Z,8.90
2023-02-03T02:55:14.275Z,9.00
2023-02-03T02:57:20.083Z,8.90
2023-02-03T02:59:22.561Z,8.90
2023-02-03T03:01:25.161Z,8.90
2023-02-03T03:03:27.761Z,8.90
2023-02-03T03:05:33.103Z,8.90
2023-02-03T03:07:41.536Z,8.90
2023-02-03T03:09:47.799Z,9.00
2023-02-03T03:11:54.873Z,8.90
2023-02-03T03:13:57.909Z,8.90
2023-02-03T03:16:03.274Z,8.90
2023-02-03T03:18:12.734Z,8.80
2023-02-03T03:20:19.791Z,8.80
2023-02-03T03:22:28.861Z,8.80
2023-02-03T03:24:33.607Z,9.10
2023-02-03T03:26:40.640Z,8.80
2023-02-03T03:28:48.892Z,8.80
2023-02-03T03:30:51.332Z,8.80
2023-02-03T03:32:54.074Z,8.80
2023-02-03T03:34:56.976Z,8.80
2023-02-03T03:37:05.385Z,8.80
2023-02-03T03:39:15.519Z,8.80
2023-02-03T03:41:25.436Z,8.80
2023-02-03T03:43:31.783Z,8.80
2023-02-03T03:45:39.182Z,8.80
2023-02-03T03:47:49.870Z,8.80
2023-02-03T03:49:53.735Z,8.90
2023-02-03T03:52:01.330Z,8.90
2023-02-03T03:54:11.905Z,8.90
2023-02-03T03:56:19.519Z,8.90
2023-02-03T03:58:25.708Z,8.90
2023-02-03T04:00:31.897Z,8.80
2023-02-03T04:02:37.064Z,8.90
2023-02-03T04:04:41.235Z,8.90
2023-02-03T04:06:43.612Z,8.90
2023-02-03T04:08:45.896Z,8.90
2023-02-03T04:10:51.120Z,8.90
2023-02-03T04:12:53.415Z,8.90
2023-02-03T04:14:55.743Z,8.90
2023-02-03T04:16:58.541Z,8.90
2023-02-03T04:19:01.039Z,8.90
2023-02-03T04:21:03.478Z,8.90
2023-02-03T04:23:05.950Z,8.90
2023-02-03T04:25:09.123Z,8.90
2023-02-03T04:27:14.243Z,8.90
2023-02-03T04:29:16.570Z,9.00
2023-02-03T04:31:19.089Z,9.00
2023-02-03T04:33:21.454Z,9.00
2023-02-03T04:35:24.006Z,9.00
2023-02-03T04:37:29.058Z,9.00
2023-02-03T04:39:31.387Z,9.00
2023-02-03T04:41:33.749Z,9.00
2023-02-03T04:43:38.685Z,9.20
2023-02-03T04:45:41.132Z,9.00
2023-02-03T04:47:43.508Z,9.00
2023-02-03T04:49:46.265Z,9.10
2023-02-03T04:51:49.123Z,9.10
2023-02-03T04:53:51.484Z,9.10
2023-02-03T04:55:54.665Z,9.00
2023-02-03T04:57:58.154Z,9.10
2023-02-03T05:00:03.374Z,9.00
2023-02-03T05:02:06.153Z,9.10
2023-02-03T05:04:08.563Z,9.10
2023-02-03T05:06:10.942Z,9.10
2023-02-03T05:08:13.397Z,9.10
2023-02-03T05:10:16.387Z,9.00
2023-02-03T05:12:18.737Z,9.00
2023-02-03T05:14:21.389Z,9.00
2023-02-03T05:16:26.530Z,9.10
2023-02-03T05:18:28.952Z,9.10
2023-02-03T05:20:31.291Z,9.40
2023-02-03T05:22:35.399Z,9.10
2023-02-03T05:24:37.671Z,9.10
2023-02-03T05:26:40.052Z,9.10
2023-02-03T05:28:42.370Z,9.10
2023-02-03T05:30:44.784Z,9.10
2023-02-03T05:32:50.314Z,9.10
2023-02-03T05:34:52.689Z,9.00
2023-02-03T05:36:55.431Z,9.10
2023-02-03T05:38:57.769Z,9.10
2023-02-03T05:41:18.961Z,9.10
2023-02-03T05:43:21.294Z,9.10
2023-02-03T05:45:23.714Z,9.10
2023-02-03T05:47:26.033Z,9.10
2023-02-03T05:49:31.043Z,9.00
2023-02-03T05:51:33.352Z,9.00
2023-02-03T05:53:35.721Z,9.00
2023-02-03T05:55:38.222Z,9.00
2023-02-03T05:57:42.411Z,9.00
2023-02-03T05:59:44.983Z,9.00
2023-02-03T06:01:47.365Z,8.90
2023-02-03T06:03:49.828Z,8.90
2023-02-03T06:05:54.920Z,8.90
2023-02-03T06:07:57.443Z,8.90
2023-02-03T06:09:59.789Z,8.90
2023-02-03T06:12:02.104Z,8.90
2023-02-03T06:14:04.988Z,8.90
2023-02-03T06:16:07.686Z,8.90
2023-02-03T06:18:10.187Z,8.90
2023-02-03T06:20:14.645Z,8.90
2023-02-03T06:22:19.649Z,8.90
2023-02-03T06:24:22.111Z,8.90
2023-02-03T06:26:25.256Z,8.90
2023-02-03T06:28:27.802Z,8.90
2023-02-03T06:30:30.401Z,8.90
2023-02-03T06:32:33.100Z,8.90
2023-02-03T06:34:35.864Z,9.00
2023-02-03T06:36:38.349Z,9.00
2023-02-03T06:38:43.602Z,9.00
2023-02-03T06:40:47.052Z,9.00
2023-02-03T06:42:51.168Z,8.90
2023-02-03T06:44:54.010Z,9.00
2023-02-03T06:46:56.461Z,9.00
2023-02-03T06:48:58.966Z,9.00
2023-02-03T06:51:01.673Z,9.00
2023-02-03T06:53:04.033Z,9.00
2023-02-03T06:55:10.206Z,9.00
2023-02-03T06:57:12.573Z,9.00
2023-02-03T06:59:15.703Z,9.00
2023-02-03T07:01:18.315Z,9.00
2023-02-03T07:03:20.754Z,9.00
2023-02-03T07:05:23.561Z,9.00
2023-02-03T07:07:25.864Z,9.00
2023-02-03T07:09:28.258Z,9.10
2023-02-03T07:11:33.359Z,9.20
2023-02-03T07:13:35.763Z,9.00
2023-02-03T07:15:38.272Z,9.10
2023-02-03T07:17:40.666Z,9.10
2023-02-03T07:19:45.100Z,9.10
2023-02-03T07:21:48.377Z,9.20
2023-02-03T07:23:50.856Z,9.40
2023-02-03T07:25:53.257Z,9.20
2023-02-03T07:27:58.389Z,9.20
2023-02-03T07:30:00.701Z,9.20
2023-02-03T07:32:03.093Z,9.20
2023-02-03T07:34:06.475Z,9.20
2023-02-03T07:36:10.335Z,9.20
2023-02-03T07:38:12.713Z,9.20
2023-02-03T07:40:15.914Z,9.20
2023-02-03T07:42:18.299Z,9.10
2023-02-03T07:44:25.016Z,9.10
2023-02-03T07:46:27.653Z,9.00
2023-02-03T07:48:29.997Z,8.90
2023-02-03T07:50:33.480Z,8.90
2023-02-03T07:52:35.910Z,8.90
2023-02-03T07:54:38.234Z,8.80
2023-02-03T07:56:40.586Z,8.90
2023-02-03T07:58:42.895Z,8.90
2023-02-03T08:00:49.634Z,8.90
2023-02-03T08:02:52.662Z,8.90
2023-02-03T08:04:58.071Z,8.90
2023-02-03T08:07:00.611Z,8.90
2023-02-03T08:09:03.197Z,8.90
2023-02-03T08:11:05.895Z,9.00
2023-02-03T08:13:08.366Z,8.90
2023-02-03T08:15:11.728Z,9.00
2023-02-03T08:17:16.753Z,9.00
2023-02-03T08:19:19.123Z,9.00
2023-02-03T08:21:21.541Z,9.00
2023-02-03T08:23:23.909Z,9.00
2023-02-03T08:25:26.283Z,9.00
2023-02-03T08:27:28.642Z,9.00
2023-02-03T08:29:31.032Z,9.00
2023-02-03T08:31:33.647Z,9.00
2023-02-03T08:33:39.100Z,9.00
2023-02-03T08:35:44.965Z,9.00
2023-02-03T08:37:47.348Z,9.00
2023-02-03T08:39:49.730Z,9.00
2023-02-03T08:41:52.045Z,9.10
2023-02-03T08:43:55.796Z,9.10
2023-02-03T08:46:03.317Z,9.10
2023-02-03T08:48:05.907Z,9.20
2023-02-03T08:50:11.649Z,9.10
2023-02-03T08:52:15.413Z,9.20
2023-02-03T08:54:19.705Z,9.20
2023-02-03T08:56:22.131Z,9.10
2023-02-03T08:58:24.556Z,9.20
2023-02-03T09:00:28.014Z,9.20
2023-02-03T09:02:31.429Z,9.20
2023-02-03T09:04:34.595Z,9.40
2023-02-03T09:06:40.317Z,9.20
2023-02-03T09:08:42.990Z,9.20
2023-02-03T09:10:45.362Z,9.20
2023-02-03T09:12:47.834Z,9.20
2023-02-03T09:14:50.954Z,9.20
2023-02-03T09:16:53.369Z,9.20
2023-02-03T09:18:55.745Z,9.30
2023-02-03T09:21:02.007Z,9.30
2023-02-03T09:23:07.209Z,9.80
2023-02-03T09:25:09.714Z,9.40
2023-02-03T09:27:12.746Z,9.40
2023-02-03T09:29:15.414Z,9.50
2023-02-03T09:31:18.053Z,9.50
2023-02-03T09:33:20.523Z,9.50
2023-02-03T09:35:23.880Z,9.50
2023-02-03T09:37:26.483Z,9.50
2023-02-03T09:39:31.656Z,9.50
2023-02-03T09:41:54.901Z,9.60
2023-02-03T09:44:04.856Z,9.60
2023-02-03T09:46:12.694Z,10.20
2023-02-03T09:48:21.082Z,10.30
2023-02-03T09:50:26.774Z,9.60
2023-02-03T09:52:33.382Z,9.60
2023-02-03T09:54:44.788Z,9.60
2023-02-03T09:56:52.560Z,9.60
2023-02-03T09:58:55.064Z,9.90
2023-02-03T10:01:01.365Z,9.70
2023-02-03T10:03:11.131Z,9.70
2023-02-03T10:05:22.699Z,9.70
2023-02-03T10:07:32.562Z,9.70
2023-02-03T10:09:50.709Z,9.70
2023-02-03T10:12:14.052Z,9.70
2023-02-03T10:14:29.835Z,9.70
2023-02-03T10:16:43.142Z,9.70
2023-02-03T10:18:51.589Z,9.70
2023-02-03T10:20:59.010Z,9.60
2023-02-03T10:23:06.634Z,9.60
2023-02-03T10:25:20.916Z,9.60
2023-02-03T10:27:25.038Z,9.70
2023-02-03T10:29:33.053Z,9.70
2023-02-03T10:31:37.509Z,9.80
2023-02-03T10:33:39.960Z,9.80
2023-02-03T10:35:49.820Z,9.80
2023-02-03T10:37:57.618Z,10.10
2023-02-03T10:40:01.925Z,9.80
2023-02-03T10:42:09.129Z,9.80
2023-02-03T10:44:14.943Z,9.90
2023-02-03T10:46:18.476Z,9.90
2023-02-03T10:48:21.134Z,9.90
2023-02-03T10:50:31.645Z,10.00
2023-02-03T10:52:35.777Z,10.00
2023-02-03T10:54:38.455Z,10.00
2023-02-03T10:56:41.256Z,10.00
2023-02-03T10:58:51.905Z,10.00
2023-02-03T11:00:57.152Z,10.00
2023-02-03T11:03:04.270Z,10.00
2023-02-03T11:05:20.971Z,9.90
2023-02-03T11:07:26.899Z,9.90
2023-02-03T11:09:33.204Z,10.00
2023-02-03T11:11:37.409Z,9.90
2023-02-03T11:13:39.896Z,10.00
2023-02-03T11:15:55.680Z,10.00
2023-02-03T11:17:58.166Z,10.10
2023-02-03T11:20:06.447Z,10.00
2023-02-03T11:22:08.884Z,10.30
2023-02-03T11:24:18.027Z,10.10
2023-02-03T11:26:22.993Z,10.00
2023-02-03T11:28:28.221Z,10.00
2023-02-03T11:30:31.021Z,10.00
2023-02-03T11:32:38.801Z,10.00
2023-02-03T11:34:47.512Z,10.00
2023-02-03T11:36:50.464Z,10.00
2023-02-03T11:38:53.081Z,10.00
2023-02-03T11:41:01.233Z,10.00
2023-02-03T11:43:06.060Z,9.90
2023-02-03T11:45:14.785Z,9.90
2023-02-03T11:47:18.047Z,9.90
2023-02-03T11:49:59.125Z,9.90
2023-02-03T11:52:15.470Z,9.90
2023-02-03T11:54:28.089Z,9.80
2023-02-03T11:56:36.062Z,9.80
2023-02-03T11:59:01.736Z,9.90
2023-02-03T12:01:16.039Z,9.90
2023-02-03T12:03:40.372Z,10.10
2023-02-03T12:05:51.292Z,10.00
2023-02-03T12:08:09.763Z,10.10
2023-02-03T12:10:26.529Z,10.20
2023-02-03T12:12:44.839Z,10.20
2023-02-03T12:14:56.547Z,10.20
2023-02-03T12:17:28.691Z,10.20
2023-02-03T12:19:41.050Z,10.10
2023-02-03T12:21:49.528Z,10.00
2023-02-03T12:24:04.416Z,10.30
2023-02-03T12:26:19.105Z,9.90
2023-02-03T12:28:33.730Z,10.00
2023-02-03T12:30:43.610Z,10.10
2023-02-03T12:32:50.712Z,10.10
2023-02-03T12:34:59.880Z,10.00
2023-02-03T12:37:06.698Z,10.10
2023-02-03T12:39:19.270Z,10.10
2023-02-03T12:41:26.844Z,10.00
2023-02-03T12:43:38.451Z,9.90
2023-02-03T12:45:42.132Z,9.90
2023-02-03T12:47:48.901Z,9.80
2023-02-03T12:49:57.040Z,9.80
2023-02-03T12:52:03.760Z,9.80
2023-02-03T12:54:16.711Z,9.80
2023-02-03T12:56:24.764Z,9.80
2023-02-03T12:58:34.424Z,9.80
2023-02-03T13:00:45.406Z,9.70
2023-02-03T13:03:00.782Z,9.60
2023-02-03T13:05:14.019Z,9.60
2023-02-03T13:07:24.946Z,9.50
2023-02-03T13:09:37.265Z,9.50
2023-02-03T13:11:46.827Z,9.40
2023-02-03T13:13:53.478Z,9.40
2023-02-03T13:15:57.720Z,9.40
2023-02-03T13:18:09.461Z,9.30
2023-02-03T13:20:18.917Z,9.30
2023-02-03T13:22:26.053Z,9.30
2023-02-03T13:24:33.617Z,9.30
2023-02-03T13:26:50.008Z,9.30
2023-02-03T13:29:07.849Z,9.30
2023-02-03T13:31:29.565Z,9.30
2023-02-03T13:33:55.274Z,9.20
2023-02-03T13:36:09.547Z,9.20
2023-02-03T13:38:40.104Z,8.80
2023-02-03T13:40:54.006Z,9.10
2023-02-03T13:43:00.059Z,9.10
2023-02-03T13:45:17.081Z,9.10
2023-02-03T13:47:24.227Z,9.10
2023-02-03T13:49:30.767Z,9.10
2023-02-03T13:51:35.986Z,9.00
2023-02-03T13:53:41.312Z,9.10
2023-02-03T13:55:53.028Z,9.10
2023-02-03T13:57:55.533Z,9.00
2023-02-03T13:59:57.851Z,9.00
2023-02-03T14:02:38.778Z,9.00
2023-02-03T14:04:55.253Z,9.00
2023-02-03T14:07:02.559Z,9.20
2023-02-03T14:09:21.168Z,9.00
2023-02-03T14:11:50.093Z,9.00
2023-02-03T14:13:52.578Z,9.20
2023-02-03T14:16:22.294Z,8.90
2023-02-03T14:18:33.833Z,9.00
2023-02-03T14:20:49.021Z,9.00
2023-02-03T14:22:53.215Z,8.90
2023-02-03T14:24:58.561Z,8.90
2023-02-03T14:27:06.420Z,8.90
2023-02-03T14:29:11.273Z,8.90
2023-02-03T14:31:17.824Z,8.90
2023-02-03T14:33:25.707Z,8.90
2023-02-03T14:35:32.794Z,8.90
2023-02-03T14:37:35.993Z,8.90
2023-02-03T14:40:17.043Z,8.90
2023-02-03T14:42:49.426Z,8.90
2023-02-03T14:45:06.955Z,8.90
2023-02-03T14:47:17.606Z,8.90
2023-02-03T14:49:44.948Z,8.90
2023-02-03T14:52:04.152Z,8.90
2023-02-03T14:54:28.515Z,8.90
2023-02-03T14:57:08.878Z,8.80
2023-02-03T14:59:14.051Z,8.90
2023-02-03T15:01:29.319Z,8.80
2023-02-03T15:03:32.066Z,8.80
2023-02-03T15:05:37.941Z,8.80
2023-02-03T15:07:46.573Z,8.80
2023-02-03T15:09:52.741Z,8.70
2023-02-03T15:11:55.359Z,8.70
2023-02-03T15:14:13.799Z,8.70
2023-02-03T15:16:21.059Z,8.70
2023-02-03T15:18:30.409Z,9.00
2023-02-03T15:20:35.709Z,8.70
2023-02-03T15:22:38.352Z,8.60
2023-02-03T15:24:40.689Z,8.60
2023-02-03T15:26:46.594Z,8.60
2023-02-03T15:28:55.077Z,8.60
2023-02-03T15:31:01.371Z,8.50
2023-02-03T15:33:09.692Z,8.50
2023-02-03T15:35:16.811Z,8.50
2023-02-03T15:37:24.082Z,8.50
2023-02-03T15:39:46.129Z,8.40
2023-02-03T15:41:53.644Z,8.40
2023-02-03T15:44:00.814Z,8.40
2023-02-03T15:46:07.610Z,8.40
2023-02-03T15:48:17.185Z,8.40
2023-02-03T15:50:29.237Z,8.30
2023-02-03T15:52:37.816Z,8.30
2023-02-03T15:54:43.666Z,8.30
2023-02-03T15:56:54.916Z,8.20
2023-02-03T15:58:58.919Z,8.20
2023-02-03T16:01:05.486Z,8.20
2023-02-03T16:03:22.834Z,8.20
2023-02-03T16:05:31.947Z,8.10
2023-02-03T16:07:34.510Z,8.10
2023-02-03T16:09:40.690Z,8.10
2023-02-03T16:11:44.198Z,8.00
2023-02-03T16:13:47.083Z,8.10
2023-02-03T16:16:06.127Z,8.00
2023-02-03T16:18:17.684Z,8.00
2023-02-03T16:20:25.828Z,8.00
2023-02-03T16:22:31.857Z,8.00
2023-02-03T16:24:38.832Z,8.10
2023-02-03T16:26:41.145Z,7.90
2023-02-03T16:29:02.324Z,7.90
2023-02-03T16:31:33.532Z,7.80
2023-02-03T16:33:55.917Z,7.90
2023-02-03T16:36:27.832Z,7.90
2023-02-03T16:38:48.908Z,7.90
2023-02-03T16:41:10.192Z,8.00
2023-02-03T16:43:33.355Z,8.70
2023-02-03T16:45:54.524Z,7.90
2023-02-03T16:48:15.737Z,8.00
2023-02-03T16:50:39.524Z,7.90
2023-02-03T16:52:44.823Z,7.80
2023-02-03T16:54:47.209Z,7.80
2023-02-03T16:56:51.107Z,7.80
2023-02-03T16:58:53.570Z,7.90
2023-02-03T17:00:58.105Z,7.90
2023-02-03T17:03:03.785Z,7.90
2023-02-03T17:05:06.761Z,7.90
2023-02-03T17:07:09.100Z,7.90
2023-02-03T17:09:14.135Z,7.90
2023-02-03T17:11:19.794Z,7.90
2023-02-03T17:13:24.415Z,7.90
2023-02-03T17:15:26.808Z,7.90
2023-02-03T17:17:29.177Z,7.90
2023-02-03T17:19:31.514Z,7.90
2023-02-03T17:21:33.833Z,7.90
2023-02-03T17:23:36.449Z,7.90
2023-02-03T17:25:43.443Z,7.90
2023-02-03T17:27:45.771Z,7.90
2023-02-03T17:29:48.165Z,7.90
2023-02-03T17:31:50.613Z,7.90
2023-02-03T17:33:52.963Z,7.90
2023-02-03T17:36:15.003Z,7.90
2023-02-03T17:38:17.375Z,7.90
2023-02-03T17:54:06.126Z,7.90
2023-02-03T17:56:10.311Z,8.00
2023-02-03T17:58:15.267Z,8.00
2023-02-03T18:00:18.371Z,8.00
2023-02-03T18:02:20.933Z,8.00
2023-02-03T18:04:23.425Z,8.00
2023-02-03T18:06:27.747Z,8.00
2023-02-03T18:08:29.768Z,8.00
2023-02-03T18:10:32.161Z,8.00
2023-02-03T18:12:34.568Z,8.00
2023-02-03T18:14:41.176Z,8.00
2023-02-03T18:16:44.277Z,8.10
2023-02-03T18:18:46.826Z,8.00
2023-02-03T18:20:49.219Z,8.30
2023-02-03T18:22:51.524Z,8.10
2023-02-03T18:24:55.502Z,8.10
2023-02-03T18:27:00.380Z,8.00
2023-02-03T18:29:03.988Z,8.00
2023-02-03T18:31:11.256Z,8.00
2023-02-03T18:33:14.022Z,7.90
2023-02-03T18:35:17.330Z,7.90
2023-02-03T18:37:19.727Z,7.90
2023-02-03T18:39:22.082Z,7.90
2023-02-03T18:41:25.524Z,8.00
2023-02-03T18:43:27.821Z,8.70
2023-02-03T18:45:30.587Z,7.90
2023-02-03T18:47:35.592Z,7.90
2023-02-03T18:49:38.325Z,7.90
2023-02-03T18:51:40.852Z,7.90
2023-02-03T18:53:45.150Z,7.90
2023-02-03T18:55:47.591Z,7.80
2023-02-03T18:57:50.009Z,8.00
2023-02-03T18:59:52.329Z,7.80
2023-02-03T19:01:54.799Z,7.80
2023-02-03T19:04:01.453Z,7.70
2023-02-03T19:06:09.347Z,7.70
2023-02-03T19:08:11.741Z,7.70
2023-02-03T19:10:14.114Z,7.70
2023-02-03T19:12:16.436Z,7.90
2023-02-03T19:14:19.493Z,7.60
2023-02-03T19:16:22.792Z,7.60
2023-02-03T19:18:25.124Z,7.50
2023-02-03T19:20:30.626Z,7.50
2023-02-03T19:22:33.751Z,7.50
2023-02-03T19:24:36.111Z,7.50
2023-02-03T19:26:38.459Z,7.60
2023-02-03T19:28:41.419Z,7.60
2023-02-03T19:30:43.983Z,7.60
2023-02-03T19:32:46.366Z,7.50
2023-02-03T19:34:48.699Z,7.50
2023-02-03T19:36:53.664Z,7.60
2023-02-03T19:38:56.931Z,7.60
2023-02-03T19:41:01.801Z,7.60
2023-02-03T19:43:05.108Z,7.50
2023-02-03T19:45:08.331Z,7.50
2023-02-03T19:47:10.801Z,7.40
2023-02-03T19:49:15.189Z,7.40
2023-02-03T19:51:17.442Z,7.40
2023-02-03T19:53:24.305Z,7.40
2023-02-03T19:55:30.768Z,7.40
2023-02-03T19:57:33.154Z,7.40
2023-02-03T19:59:35.553Z,7.40
2023-02-03T20:01:38.144Z,7.40
2023-02-03T20:03:42.680Z,7.40
2023-02-03T20:05:45.394Z,7.30
2023-02-03T20:07:48.455Z,7.30
2023-02-03T20:09:53.710Z,7.30
2023-02-03T20:11:56.365Z,7.40
2023-02-03T20:14:01.592Z,7.40
2023-02-03T20:16:05.998Z,7.80
2023-02-03T20:18:09.418Z,7.40
2023-02-03T20:20:12.199Z,7.40
2023-02-03T20:22:20.883Z,7.40
2023-02-03T20:24:23.456Z,7.40
2023-02-03T20:26:28.669Z,7.40
2023-02-03T20:28:31.151Z,7.50
2023-02-03T20:30:33.891Z,7.40
2023-02-03T20:32:43.598Z,8.20
2023-02-03T20:34:46.142Z,7.40
2023-02-03T20:36:48.536Z,7.40
2023-02-03T20:38:51.194Z,7.40
2023-02-03T20:40:53.663Z,7.40
2023-02-03T20:43:02.653Z,7.40
2023-02-03T20:45:10.759Z,7.40
2023-02-03T20:47:14.543Z,7.50
2023-02-03T20:49:20.595Z,7.50
2023-02-03T20:51:24.767Z,7.40
2023-02-03T20:53:27.433Z,7.40
2023-02-03T20:55:29.873Z,7.50
2023-02-03T20:57:33.445Z,7.40
2023-02-03T20:59:38.790Z,7.40
2023-02-03T21:01:41.483Z,7.60
2023-02-03T21:04:03.490Z,7.40
2023-02-03T21:06:13.401Z,7.40
2023-02-03T21:08:19.314Z,7.30
2023-02-03T21:10:24.711Z,7.40
2023-02-03T21:12:28.236Z,7.40
2023-02-03T21:14:39.077Z,7.40
2023-02-03T21:16:41.605Z,7.40
2023-02-03T21:18:52.423Z,7.40
2023-02-03T21:20:54.915Z,7.50
2023-02-03T21:22:58.275Z,7.50
2023-02-03T21:25:03.395Z,7.40
2023-02-03T21:27:29.441Z,7.40
2023-02-03T21:29:33.957Z,7.50
2023-02-03T21:31:40.901Z,7.40
2023-02-03T21:33:44.061Z,7.40
2023-02-03T21:35:47.123Z,7.40
2023-02-03T21:37:49.609Z,7.40
2023-02-03T21:39:52.429Z,7.30
2023-02-03T21:41:55.224Z,7.30
2023-02-03T21:43:58.822Z,7.30
2023-02-03T21:46:01.830Z,7.30
2023-02-03T21:48:32.599Z,7.30
2023-02-03T21:50:37.261Z,7.20
2023-02-03T21:52:39.716Z,7.20
2023-02-03T21:54:44.416Z,7.20
2023-02-03T21:56:47.044Z,7.40
2023-02-03T21:58:50.839Z,7.20
2023-02-03T22:00:54.313Z,7.20
2023-02-03T22:02:59.779Z,7.20
2023-02-03T22:05:15.012Z,7.20
2023-02-03T22:07:24.322Z,7.10
2023-02-03T22:09:27.694Z,7.10
2023-02-03T22:11:30.522Z,7.10
2023-02-03T22:13:33.308Z,7.10
2023-02-03T22:15:35.635Z,7.10
2023-02-03T22:17:38.001Z,7.00
2023-02-03T22:19:41.141Z,7.00
2023-02-03T22:21:47.844Z,7.00
2023-02-03T22:23:50.333Z,7.00
2023-02-03T22:25:53.223Z,7.00
2023-02-03T22:27:55.651Z,7.00
2023-02-03T22:29:58.030Z,7.70
2023-02-03T22:32:00.619Z,7.00
2023-02-03T22:34:05.348Z,6.90
2023-02-03T22:36:10.078Z,7.00
2023-02-03T22:38:15.409Z,7.00
2023-02-03T22:40:18.719Z,7.00
2023-02-03T22:42:22.408Z,7.00
2023-02-03T22:44:24.869Z,7.00
2023-02-03T22:46:27.445Z,7.10
2023-02-03T22:48:30.591Z,7.10
2023-02-03T22:50:37.291Z,7.10
2023-02-03T22:52:39.941Z,7.00
2023-02-03T22:54:45.048Z,7.10
2023-02-03T22:56:52.641Z,7.10
2023-02-03T22:58:56.204Z,7.20
2023-02-03T23:00:58.816Z,7.10
2023-02-03T23:03:01.259Z,7.40
2023-02-03T23:05:04.053Z,7.00
2023-02-03T23:07:06.467Z,7.00
2023-02-03T23:09:09.161Z,7.00
2023-02-03T23:11:14.374Z,7.00
2023-02-03T23:13:16.984Z,7.00
2023-02-03T23:15:19.699Z,7.30
2023-02-03T23:17:22.145Z,7.00
2023-02-03T23:19:30.348Z,7.00
2023-02-03T23:21:35.720Z,7.00
2023-02-03T23:23:38.129Z,7.00
2023-02-03T23:25:40.632Z,6.90
2023-02-03T23:27:45.923Z,7.00
2023-02-03T23:29:48.658Z,7.00
2023-02-03T23:31:51.219Z,6.90
2023-02-03T23:34:12.618Z,7.00
2023-02-03T23:36:15.110Z,6.90
2023-02-03T23:38:18.363Z,7.00
2023-02-03T23:40:21.310Z,6.90
2023-02-03T23:42:23.971Z,7.00
2023-02-03T23:44:29.192Z,7.00
2023-02-03T23:46:31.872Z,7.00
2023-02-03T23:48:34.404Z,7.00
2023-02-03T23:50:39.817Z,7.00
2023-02-03T23:52:42.644Z,7.00
2023-02-03T23:54:45.223Z,7.00
2023-02-03T23:56:47.897Z,7.10
2023-02-03T23:58:54.906Z,7.10
